createdAt,value
2018-04-18T00:00:54.589Z,0
2018-04-18T00:02:02.671Z,0
2018-04-18T00:03:10.736Z,0
2018-04-18T00:04:18.795Z,0
2018-04-18T00:05:26.854Z,0
2018-04-18T00:06:34.892Z,0
2018-04-18T00:07:42.972Z,0
2018-04-18T00:08:51.043Z,0
2018-04-18T00:09:59.086Z,0
2018-04-18T00:11:07.149Z,0
2018-04-18T00:12:15.179Z,0
2018-04-18T00:13:23.272Z,0
2018-04-18T00:14:31.327Z,0
2018-04-18T00:15:39.394Z,0
2018-04-18T00:16:47.435Z,0
2018-04-18T00:17:55.487Z,0
2018-04-18T00:19:03.561Z,0
2018-04-18T00:20:11.634Z,0
2018-04-18T00:21:19.673Z,0
2018-04-18T00:22:27.756Z,0
2018-04-18T00:23:35.800Z,0
2018-04-18T00:24:43.851Z,0
2018-04-18T00:25:51.907Z,0
2018-04-18T00:26:59.986Z,0
2018-04-18T00:28:08.025Z,0
2018-04-18T00:29:16.130Z,0
2018-04-18T00:30:24.153Z,0
2018-04-18T00:31:32.219Z,0
2018-04-18T00:32:40.271Z,0
2018-04-18T00:33:48.320Z,0
2018-04-18T00:34:56.429Z,0
2018-04-18T00:36:04.449Z,0
2018-04-18T00:37:12.546Z,0
2018-04-18T00:38:20.569Z,0
2018-04-18T00:39:28.622Z,0
2018-04-18T00:40:36.676Z,0
2018-04-18T00:41:44.727Z,0
2018-04-18T00:42:52.815Z,0
2018-04-18T00:44:00.866Z,0
2018-04-18T00:45:08.914Z,0
2018-04-18T00:46:18.016Z,0
2018-04-18T00:47:24.999Z,0
2018-04-18T00:48:33.102Z,0
2018-04-18T00:49:41.159Z,0
2018-04-18T00:50:49.216Z,0
2018-04-18T00:51:57.271Z,0
2018-04-18T00:53:05.306Z,0
2018-04-18T00:54:13.394Z,0
2018-04-18T00:55:21.443Z,0
2018-04-18T00:56:29.497Z,0
2018-04-18T00:57:37.574Z,0
2018-04-18T00:58:45.627Z,0
2018-04-18T00:59:53.692Z,0
2018-04-18T01:01:01.744Z,0
2018-04-18T01:02:09.801Z,0
2018-04-18T01:03:17.864Z,0
2018-04-18T01:04:25.926Z,0
2018-04-18T01:05:33.971Z,0
2018-04-18T01:06:42.029Z,0
2018-04-18T01:07:50.093Z,0
2018-04-18T01:08:58.157Z,0
2018-04-18T01:10:06.213Z,0
2018-04-18T01:11:14.276Z,0
2018-04-18T01:12:22.322Z,0
2018-04-18T01:13:30.389Z,0
2018-04-18T01:14:38.472Z,0
2018-04-18T01:15:46.506Z,0
2018-04-18T01:16:54.541Z,0
2018-04-18T01:18:02.622Z,0
2018-04-18T01:19:10.686Z,0
2018-04-18T01:20:18.743Z,0
2018-04-18T01:21:26.799Z,0
2018-04-18T01:22:34.830Z,0
2018-04-18T01:23:42.920Z,0
2018-04-18T01:24:50.978Z,0
2018-04-18T01:25:59.022Z,0
2018-04-18T01:27:07.106Z,0
2018-04-18T01:28:15.133Z,0
2018-04-18T01:29:23.210Z,0
2018-04-18T01:30:31.267Z,0
2018-04-18T01:31:39.326Z,0
2018-04-18T01:32:47.385Z,0
2018-04-18T01:33:55.422Z,0
2018-04-18T01:35:03.509Z,0
2018-04-18T01:36:11.595Z,0
2018-04-18T01:37:19.619Z,0
2018-04-18T01:38:27.683Z,0
2018-04-18T01:39:35.734Z,0
2018-04-18T01:40:43.800Z,0
2018-04-18T01:41:51.866Z,0
2018-04-18T01:42:59.927Z,0
2018-04-18T01:44:07.973Z,0
2018-04-18T01:45:16.044Z,0
2018-04-18T01:46:24.089Z,0
2018-04-18T01:47:32.147Z,0
2018-04-18T01:48:40.203Z,0
2018-04-18T01:49:48.269Z,0
2018-04-18T01:50:56.334Z,0
2018-04-18T01:52:04.391Z,0
2018-04-18T01:53:12.449Z,0
2018-04-18T01:54:20.498Z,0
2018-04-18T01:55:28.562Z,0
2018-04-18T01:56:36.633Z,0
2018-04-18T01:57:44.665Z,0
2018-04-18T01:58:52.737Z,0
2018-04-18T02:00:00.799Z,0
2018-04-18T02:01:08.862Z,0
2018-04-18T02:02:16.924Z,0
2018-04-18T02:03:24.953Z,0
2018-04-18T02:04:33.036Z,0
2018-04-18T02:05:41.116Z,0
2018-04-18T02:06:49.147Z,0
2018-04-18T02:07:57.212Z,0
2018-04-18T02:09:05.243Z,0
2018-04-18T02:10:13.333Z,0
2018-04-18T02:11:21.398Z,0
2018-04-18T02:12:29.468Z,0
2018-04-18T02:13:37.513Z,0
2018-04-18T02:14:45.552Z,0
2018-04-18T02:15:53.635Z,0
2018-04-18T02:17:01.689Z,0
2018-04-18T02:18:09.730Z,0
2018-04-18T02:19:17.798Z,0
2018-04-18T02:20:25.867Z,0
2018-04-18T02:21:33.928Z,0
2018-04-18T02:22:41.965Z,0
2018-04-18T02:23:50.042Z,0
2018-04-18T02:24:58.124Z,0
2018-04-18T02:26:06.154Z,0
2018-04-18T02:27:14.212Z,0
2018-04-18T02:28:22.286Z,0
2018-04-18T02:29:30.342Z,0
2018-04-18T02:30:38.408Z,0
2018-04-18T02:31:46.455Z,0
2018-04-18T02:32:54.507Z,0
2018-04-18T02:34:02.594Z,0
2018-04-18T02:35:10.623Z,0
2018-04-18T02:36:18.695Z,0
2018-04-18T02:37:26.754Z,0
2018-04-18T02:38:34.779Z,0
2018-04-18T02:39:42.868Z,0
2018-04-18T02:40:50.920Z,0
2018-04-18T02:41:58.987Z,0
2018-04-18T02:43:07.039Z,0
2018-04-18T02:44:15.086Z,0
2018-04-18T02:45:23.156Z,0
2018-04-18T02:46:31.217Z,0
2018-04-18T02:47:39.277Z,0
2018-04-18T02:48:47.336Z,0
2018-04-18T02:49:55.380Z,0
2018-04-18T02:51:03.445Z,0
2018-04-18T02:52:11.517Z,0
2018-04-18T02:53:19.575Z,0
2018-04-18T02:54:27.644Z,0
2018-04-18T02:55:35.693Z,0
2018-04-18T02:56:43.752Z,0
2018-04-18T02:57:51.814Z,0
2018-04-18T02:58:59.870Z,0
2018-04-18T03:00:07.934Z,0
2018-04-18T03:01:15.983Z,0
2018-04-18T03:02:24.036Z,0
2018-04-18T03:03:32.102Z,0
2018-04-18T03:04:40.160Z,0
2018-04-18T03:05:48.230Z,0
2018-04-18T03:06:56.293Z,0
2018-04-18T03:08:04.338Z,0
2018-04-18T03:09:12.407Z,0
2018-04-18T03:10:20.481Z,0
2018-04-18T03:11:28.522Z,0
2018-04-18T03:12:36.581Z,0
2018-04-18T03:13:44.609Z,0
2018-04-18T03:14:52.722Z,0
2018-04-18T03:16:00.753Z,0
2018-04-18T03:17:08.823Z,0
2018-04-18T03:18:16.863Z,0
2018-04-18T03:19:24.911Z,0
2018-04-18T03:20:32.998Z,0
2018-04-18T03:21:41.053Z,0
2018-04-18T03:22:49.115Z,0
2018-04-18T03:23:57.164Z,0
2018-04-18T03:25:05.192Z,0
2018-04-18T03:26:13.296Z,0
2018-04-18T03:27:21.344Z,0
2018-04-18T03:28:29.420Z,0
2018-04-18T03:29:37.461Z,0
2018-04-18T03:30:45.516Z,0
2018-04-18T03:31:53.615Z,0
2018-04-18T03:33:01.641Z,0
2018-04-18T03:34:09.701Z,0
2018-04-18T03:35:17.772Z,0
2018-04-18T03:36:25.813Z,0
2018-04-18T03:37:33.880Z,0
2018-04-18T03:38:41.938Z,0
2018-04-18T03:39:50.002Z,0
2018-04-18T03:40:58.056Z,0
2018-04-18T03:42:06.116Z,0
2018-04-18T03:43:14.186Z,0
2018-04-18T03:44:22.244Z,0
2018-04-18T03:45:30.289Z,0
2018-04-18T03:46:38.365Z,0
2018-04-18T03:47:46.391Z,0
2018-04-18T03:48:54.466Z,0
2018-04-18T03:50:02.534Z,0
2018-04-18T03:51:10.598Z,0
2018-04-18T03:52:18.650Z,0
2018-04-18T03:53:26.708Z,0
2018-04-18T03:54:34.743Z,0
2018-04-18T03:55:42.832Z,0
2018-04-18T03:56:50.887Z,0
2018-04-18T03:57:58.970Z,4
2018-04-18T03:59:07.009Z,0
2018-04-18T04:00:15.036Z,4
2018-04-18T04:01:23.128Z,4
2018-04-18T04:02:31.185Z,4
2018-04-18T04:03:39.251Z,4
2018-04-18T04:04:47.303Z,4
2018-04-18T04:05:55.340Z,8
2018-04-18T04:07:03.426Z,12
2018-04-18T04:08:11.489Z,12
2018-04-18T04:09:19.555Z,16
2018-04-18T04:10:27.654Z,20
2018-04-18T04:11:35.655Z,20
2018-04-18T04:12:43.729Z,28
2018-04-18T04:13:51.790Z,36
2018-04-18T04:14:59.832Z,40
2018-04-18T04:16:07.905Z,52
2018-04-18T04:17:15.963Z,60
2018-04-18T04:18:24.023Z,68
2018-04-18T04:19:32.092Z,84
2018-04-18T04:20:40.132Z,96
2018-04-18T04:21:48.191Z,108
2018-04-18T04:22:56.261Z,124
2018-04-18T04:24:04.312Z,144
2018-04-18T04:25:12.397Z,164
2018-04-18T04:26:20.440Z,188
2018-04-18T04:27:28.501Z,212
2018-04-18T04:28:36.562Z,240
2018-04-18T04:29:44.602Z,268
2018-04-18T04:30:52.663Z,300
2018-04-18T04:32:00.756Z,328
2018-04-18T04:33:08.784Z,364
2018-04-18T04:34:17.156Z,400
2018-04-18T04:35:24.886Z,444
2018-04-18T04:36:32.997Z,484
2018-04-18T04:37:41.010Z,524
2018-04-18T04:38:49.085Z,572
2018-04-18T04:39:57.148Z,620
2018-04-18T04:41:05.177Z,668
2018-04-18T04:42:13.330Z,716
2018-04-18T04:43:21.612Z,768
2018-04-18T04:44:29.619Z,820
2018-04-18T04:45:37.484Z,872
2018-04-18T04:46:45.471Z,928
2018-04-18T04:47:53.577Z,984
2018-04-18T04:49:01.627Z,1040
2018-04-18T04:50:10.963Z,1092
2018-04-18T04:51:17.740Z,1152
2018-04-18T04:52:26.401Z,1208
2018-04-18T04:53:33.855Z,1264
2018-04-18T04:54:41.931Z,1324
2018-04-18T04:55:49.980Z,1384
2018-04-18T04:56:58.022Z,1440
2018-04-18T04:58:06.081Z,1500
2018-04-18T04:59:14.144Z,1560
2018-04-18T05:00:22.203Z,1616
2018-04-18T05:01:30.261Z,1672
2018-04-18T05:02:38.368Z,1724
2018-04-18T05:03:46.385Z,1776
2018-04-18T05:04:54.432Z,1828
2018-04-18T05:06:02.509Z,1880
2018-04-18T05:07:10.902Z,1932
2018-04-18T05:08:18.622Z,1988
2018-04-18T05:09:26.671Z,2040
2018-04-18T05:10:34.727Z,2084
2018-04-18T05:11:42.798Z,2128
2018-04-18T05:12:50.879Z,2172
2018-04-18T05:13:58.916Z,2220
2018-04-18T05:15:06.971Z,2264
2018-04-18T05:16:17.620Z,2304
2018-04-18T05:17:23.097Z,2344
2018-04-18T05:18:31.212Z,2388
2018-04-18T05:19:39.471Z,2428
2018-04-18T05:20:47.656Z,2476
2018-04-18T05:21:55.309Z,2524
2018-04-18T05:23:03.386Z,2572
2018-04-18T05:24:11.445Z,2616
2018-04-18T05:25:19.519Z,2660
2018-04-18T05:26:27.581Z,2700
2018-04-18T05:27:35.632Z,2744
2018-04-18T05:28:43.703Z,2792
2018-04-18T05:29:51.757Z,2832
2018-04-18T05:30:59.833Z,2872
2018-04-18T05:32:07.873Z,2920
2018-04-18T05:33:15.941Z,3188
2018-04-18T05:34:23.997Z,4340
2018-04-18T05:35:32.038Z,4680
2018-04-18T05:36:40.109Z,3416
2018-04-18T05:37:48.173Z,3224
2018-04-18T05:38:56.241Z,3408
2018-04-18T05:40:04.297Z,4612
2018-04-18T05:41:12.343Z,5716
2018-04-18T05:42:20.407Z,5268
2018-04-18T05:43:28.456Z,5584
2018-04-18T05:44:36.527Z,6104
2018-04-18T05:45:44.576Z,5704
2018-04-18T05:46:52.650Z,7100
2018-04-18T05:48:00.705Z,10196
2018-04-18T05:49:08.770Z,10640
2018-04-18T05:50:16.824Z,13332
2018-04-18T05:51:24.873Z,15264
2018-04-18T05:52:32.952Z,15808
2018-04-18T05:53:41.021Z,10108
2018-04-18T05:54:49.071Z,5728
2018-04-18T05:55:57.149Z,8380
2018-04-18T05:57:05.190Z,14564
2018-04-18T05:58:13.272Z,10816
2018-04-18T05:59:21.327Z,6588
2018-04-18T06:00:29.397Z,8088
2018-04-18T06:01:37.458Z,8168
2018-04-18T06:02:45.502Z,7912
2018-04-18T06:03:53.573Z,14056
2018-04-18T06:05:01.663Z,14784
2018-04-18T06:06:09.766Z,15136
2018-04-18T06:07:17.764Z,16384
2018-04-18T06:08:25.848Z,19520
2018-04-18T06:09:33.904Z,17472
2018-04-18T06:10:41.968Z,12172
2018-04-18T06:11:50.025Z,11048
2018-04-18T06:12:58.086Z,17120
2018-04-18T06:14:06.159Z,13168
2018-04-18T06:15:14.226Z,8404
2018-04-18T06:16:22.285Z,8484
2018-04-18T06:17:30.361Z,11364
2018-04-18T06:18:38.429Z,14324
2018-04-18T06:19:46.477Z,9540
2018-04-18T06:20:54.544Z,10564
2018-04-18T06:22:02.623Z,9180
2018-04-18T06:23:10.680Z,11712
2018-04-18T06:24:18.752Z,17156
2018-04-18T06:25:26.807Z,14328
2018-04-18T06:26:34.855Z,10420
2018-04-18T06:27:42.949Z,7548
2018-04-18T06:28:51.012Z,11928
2018-04-18T06:29:59.070Z,13680
2018-04-18T06:31:07.142Z,8068
2018-04-18T06:32:15.182Z,10560
2018-04-18T06:33:23.266Z,13768
2018-04-18T06:34:31.333Z,15424
2018-04-18T06:35:39.405Z,13576
2018-04-18T06:36:47.470Z,15324
2018-04-18T06:37:55.531Z,14252
2018-04-18T06:39:03.610Z,16256
2018-04-18T06:40:11.685Z,14304
2018-04-18T06:41:19.729Z,13188
2018-04-18T06:42:27.810Z,12584
2018-04-18T06:43:35.879Z,12532
2018-04-18T06:44:43.913Z,10600
2018-04-18T06:45:52.055Z,14328
2018-04-18T06:47:00.072Z,12012
2018-04-18T06:48:08.140Z,9296
2018-04-18T06:49:16.199Z,8368
2018-04-18T06:50:24.277Z,8000
2018-04-18T06:51:32.336Z,6672
2018-04-18T06:52:40.408Z,6456
2018-04-18T06:53:48.476Z,9572
2018-04-18T06:54:56.539Z,12256
2018-04-18T06:56:04.611Z,7456
2018-04-18T06:57:12.661Z,7092
2018-04-18T06:58:20.725Z,12440
2018-04-18T06:59:28.796Z,9732
2018-04-18T07:00:36.896Z,5796
2018-04-18T07:01:44.903Z,7184
2018-04-18T07:02:52.988Z,10344
2018-04-18T07:04:01.060Z,9720
2018-04-18T07:05:09.133Z,13736
2018-04-18T07:06:17.191Z,12156
2018-04-18T07:07:25.238Z,13736
2018-04-18T07:08:33.323Z,14376
2018-04-18T07:09:41.390Z,11500
2018-04-18T07:10:49.454Z,9552
2018-04-18T07:11:57.523Z,7480
2018-04-18T07:13:05.580Z,6176
2018-04-18T07:14:13.656Z,9648
2018-04-18T07:15:21.721Z,7600
2018-04-18T07:16:29.789Z,6184
2018-04-18T07:17:37.865Z,8036
2018-04-18T07:18:45.920Z,18464
2018-04-18T07:19:53.978Z,21440
2018-04-18T07:21:02.055Z,23616
2018-04-18T07:22:10.121Z,22336
2018-04-18T07:23:18.180Z,24608
2018-04-18T07:24:26.247Z,25184
2018-04-18T07:25:34.324Z,17376
2018-04-18T07:26:42.389Z,6528
2018-04-18T07:27:50.440Z,5928
2018-04-18T07:28:58.525Z,5952
2018-04-18T07:30:06.588Z,5940
2018-04-18T07:31:14.620Z,5940
2018-04-18T07:32:22.708Z,5972
2018-04-18T07:33:30.796Z,10728
2018-04-18T07:34:38.849Z,11812
2018-04-18T07:35:46.933Z,8272
2018-04-18T07:36:54.965Z,25888
2018-04-18T07:38:03.060Z,33248
2018-04-18T07:39:11.122Z,23648
2018-04-18T07:40:19.194Z,12464
2018-04-18T07:41:27.271Z,6444
2018-04-18T07:42:35.309Z,12644
2018-04-18T07:43:43.395Z,25280
2018-04-18T07:44:51.455Z,30944
2018-04-18T07:45:59.525Z,31456
2018-04-18T07:47:07.594Z,49696
2018-04-18T07:48:15.693Z,43488
2018-04-18T07:49:23.728Z,42592
2018-04-18T07:50:31.799Z,39552
2018-04-18T07:51:39.858Z,34688
2018-04-18T07:52:48.286Z,35904
2018-04-18T07:53:56.000Z,46432
2018-04-18T07:55:04.083Z,53600
2018-04-18T07:56:12.153Z,59328
2018-04-18T07:57:20.226Z,59904
2018-04-18T07:58:28.288Z,58688
2018-04-18T07:59:36.361Z,61088
2018-04-18T08:00:44.421Z,63328
2018-04-18T08:01:52.542Z,68352
2018-04-18T08:03:00.588Z,65440
2018-04-18T08:04:08.673Z,59072
2018-04-18T08:05:16.718Z,49728
2018-04-18T08:06:24.761Z,48096
2018-04-18T08:07:32.861Z,36416
2018-04-18T08:08:40.920Z,40128
2018-04-18T08:09:49.012Z,49664
2018-04-18T08:10:57.079Z,49920
2018-04-18T08:12:05.131Z,55104
2018-04-18T08:13:13.241Z,37600
2018-04-18T08:14:21.298Z,39552
2018-04-18T08:15:29.472Z,46368
2018-04-18T08:16:37.443Z,54176
2018-04-18T08:17:45.527Z,50208
2018-04-18T08:18:53.593Z,54080
2018-04-18T08:20:01.670Z,58752
2018-04-18T08:21:09.734Z,47520
2018-04-18T08:22:17.819Z,47552
2018-04-18T08:23:25.885Z,51808
2018-04-18T08:24:33.964Z,60672
2018-04-18T08:25:42.037Z,61728
2018-04-18T08:26:50.113Z,62080
2018-04-18T08:27:58.189Z,49856
2018-04-18T08:29:06.254Z,48864
2018-04-18T08:30:14.334Z,65408
2018-04-18T08:31:22.401Z,66016
2018-04-18T08:32:30.482Z,65120
2018-04-18T08:33:38.552Z,66944
2018-04-18T08:34:46.630Z,55712
2018-04-18T08:35:54.689Z,62112
2018-04-18T08:37:02.778Z,71872
2018-04-18T08:38:10.853Z,70016
2018-04-18T08:39:18.911Z,70848
2018-04-18T08:40:26.995Z,70016
2018-04-18T08:41:35.044Z,67616
2018-04-18T08:42:43.139Z,70560
2018-04-18T08:43:51.223Z,73856
2018-04-18T08:44:59.295Z,71232
2018-04-18T08:46:07.378Z,71840
2018-04-18T08:47:15.436Z,67616
2018-04-18T08:48:23.522Z,70304
2018-04-18T08:49:31.594Z,69536
2018-04-18T08:50:39.680Z,72544
2018-04-18T08:51:47.753Z,73536
2018-04-18T08:52:55.806Z,75136
2018-04-18T08:54:03.888Z,39008
2018-04-18T08:55:11.963Z,6064
2018-04-18T08:56:20.048Z,5644
2018-04-18T08:57:28.113Z,5676
2018-04-18T08:58:36.183Z,5600
2018-04-18T08:59:44.254Z,5492
2018-04-18T09:00:52.331Z,5484
2018-04-18T09:02:00.417Z,5456
2018-04-18T09:03:08.493Z,5496
2018-04-18T09:04:16.559Z,5524
2018-04-18T09:05:24.603Z,5408
2018-04-18T09:06:32.697Z,5448
2018-04-18T09:07:40.762Z,5460
2018-04-18T09:08:48.830Z,5432
2018-04-18T09:09:56.912Z,5440
2018-04-18T09:11:04.968Z,5568
2018-04-18T09:12:13.050Z,5624
2018-04-18T09:13:21.113Z,5576
2018-04-18T09:14:29.185Z,5620
2018-04-18T09:15:37.252Z,5548
2018-04-18T09:16:45.305Z,5556
2018-04-18T09:17:53.385Z,5656
2018-04-18T09:19:01.467Z,5668
2018-04-18T09:20:09.532Z,5592
2018-04-18T09:21:17.600Z,5500
2018-04-18T09:22:25.655Z,5512
2018-04-18T09:23:33.748Z,5560
2018-04-18T09:24:41.815Z,5748
2018-04-18T09:25:49.874Z,5780
2018-04-18T09:26:57.942Z,5904
2018-04-18T09:28:06.007Z,5784
2018-04-18T09:29:14.077Z,5660
2018-04-18T09:30:22.140Z,5836
2018-04-18T09:31:30.236Z,5868
2018-04-18T09:32:38.292Z,5924
2018-04-18T09:33:46.358Z,6080
2018-04-18T09:34:54.418Z,6044
2018-04-18T09:36:02.495Z,6004
2018-04-18T09:37:10.553Z,6144
2018-04-18T09:38:18.620Z,6068
2018-04-18T09:39:26.691Z,5912
2018-04-18T09:40:34.725Z,5948
2018-04-18T09:41:42.821Z,5968
2018-04-18T09:42:50.893Z,5960
2018-04-18T09:43:58.970Z,5892
2018-04-18T09:45:07.028Z,5808
2018-04-18T09:46:15.086Z,5684
2018-04-18T09:47:23.166Z,5660
2018-04-18T09:48:31.227Z,5736
2018-04-18T09:49:39.306Z,5624
2018-04-18T09:50:47.362Z,5748
2018-04-18T09:51:55.408Z,5808
2018-04-18T09:53:03.511Z,5588
2018-04-18T09:54:11.579Z,5588
2018-04-18T09:55:19.651Z,5492
2018-04-18T09:56:27.703Z,5360
2018-04-18T09:57:35.774Z,5240
2018-04-18T09:58:43.843Z,5116
2018-04-18T09:59:51.911Z,5032
2018-04-18T10:00:59.965Z,5012
2018-04-18T10:02:08.042Z,5012
2018-04-18T10:03:16.112Z,4976
2018-04-18T10:04:24.183Z,4984
2018-04-18T10:05:32.246Z,4960
2018-04-18T10:06:40.310Z,5004
2018-04-18T10:07:48.382Z,4944
2018-04-18T10:08:56.453Z,4948
2018-04-18T10:10:04.502Z,4948
2018-04-18T10:11:12.612Z,4980
2018-04-18T10:12:20.646Z,4912
2018-04-18T10:13:28.714Z,4844
2018-04-18T10:14:36.779Z,4776
2018-04-18T10:15:44.820Z,4760
2018-04-18T10:16:52.912Z,4760
2018-04-18T10:18:00.998Z,4716
2018-04-18T10:19:09.051Z,4708
2018-04-18T10:20:17.117Z,4700
2018-04-18T10:21:25.164Z,4724
2018-04-18T10:22:33.297Z,4656
2018-04-18T10:23:41.318Z,4660
2018-04-18T10:24:49.394Z,4636
2018-04-18T10:25:57.456Z,4608
2018-04-18T10:27:05.538Z,4560
2018-04-18T10:28:13.589Z,4596
2018-04-18T10:29:21.660Z,4540
2018-04-18T10:30:29.733Z,4520
2018-04-18T10:31:37.823Z,4492
2018-04-18T10:32:45.861Z,4436
2018-04-18T10:33:53.931Z,4452
2018-04-18T10:35:02.006Z,4480
2018-04-18T10:36:10.060Z,4516
2018-04-18T10:37:18.128Z,4508
2018-04-18T10:38:26.248Z,4476
2018-04-18T10:39:34.266Z,4440
2018-04-18T10:40:42.327Z,4412
2018-04-18T10:41:50.401Z,4420
2018-04-18T10:42:58.457Z,4396
2018-04-18T10:44:06.562Z,4372
2018-04-18T10:45:14.577Z,4356
2018-04-18T10:46:22.679Z,4340
2018-04-18T10:47:30.734Z,4364
2018-04-18T10:48:38.812Z,4344
2018-04-18T10:49:46.861Z,4304
2018-04-18T10:50:54.906Z,4304
2018-04-18T10:52:03.020Z,4316
2018-04-18T10:53:11.069Z,4320
2018-04-18T10:54:19.152Z,4284
2018-04-18T10:55:27.219Z,4292
2018-04-18T10:56:35.252Z,4296
2018-04-18T10:57:43.338Z,4292
2018-04-18T10:58:51.413Z,4304
2018-04-18T10:59:59.485Z,4308
2018-04-18T11:01:07.547Z,4268
2018-04-18T11:02:15.610Z,4260
2018-04-18T11:03:23.690Z,4240
2018-04-18T11:04:31.756Z,4200
2018-04-18T11:05:39.827Z,4216
2018-04-18T11:06:47.904Z,4240
2018-04-18T11:07:55.954Z,4248
2018-04-18T11:09:04.020Z,4260
2018-04-18T11:10:12.104Z,4300
2018-04-18T11:11:20.157Z,4296
2018-04-18T11:12:28.234Z,4312
2018-04-18T11:13:36.309Z,4292
2018-04-18T11:14:44.361Z,4288
2018-04-18T11:15:52.442Z,4280
2018-04-18T11:17:00.495Z,4264
2018-04-18T11:18:08.577Z,4288
2018-04-18T11:19:16.658Z,4308
2018-04-18T11:20:24.690Z,4372
2018-04-18T11:21:32.773Z,4380
2018-04-18T11:22:40.848Z,4372
2018-04-18T11:23:48.916Z,4296
2018-04-18T11:24:56.971Z,4284
2018-04-18T11:26:05.012Z,4204
2018-04-18T11:27:13.102Z,4184
2018-04-18T11:28:21.181Z,4152
2018-04-18T11:29:29.251Z,4128
2018-04-18T11:30:37.325Z,4100
2018-04-18T11:31:45.370Z,4104
2018-04-18T11:32:53.464Z,4128
2018-04-18T11:34:01.519Z,4116
2018-04-18T11:35:09.578Z,4096
2018-04-18T11:36:17.650Z,4080
2018-04-18T11:37:25.726Z,4056
2018-04-18T11:38:33.801Z,4052
2018-04-18T11:39:41.893Z,4056
2018-04-18T11:40:49.932Z,4064
2018-04-18T11:41:58.010Z,4036
2018-04-18T11:43:06.064Z,4048
2018-04-18T11:44:14.139Z,4060
2018-04-18T11:45:22.205Z,4028
2018-04-18T11:46:30.267Z,4052
2018-04-18T11:47:38.340Z,4076
2018-04-18T11:48:46.415Z,4084
2018-04-18T11:49:54.476Z,4072
2018-04-18T11:51:02.546Z,4084
2018-04-18T11:52:10.607Z,4080
2018-04-18T11:53:18.686Z,4044
2018-04-18T11:54:26.753Z,4044
2018-04-18T11:55:34.789Z,4044
2018-04-18T11:56:42.885Z,4028
2018-04-18T11:57:50.961Z,4048
2018-04-18T11:58:59.048Z,4036
2018-04-18T12:00:07.092Z,4052
2018-04-18T12:01:15.166Z,4020
2018-04-18T12:02:23.219Z,4016
2018-04-18T12:03:31.299Z,3996
2018-04-18T12:04:39.349Z,4024
2018-04-18T12:05:47.427Z,3992
2018-04-18T12:06:55.480Z,3964
2018-04-18T12:08:03.569Z,3956
2018-04-18T12:09:11.628Z,3928
2018-04-18T12:10:19.719Z,3984
2018-04-18T12:11:27.792Z,3980
2018-04-18T12:12:35.848Z,4012
2018-04-18T12:13:43.903Z,4076
2018-04-18T12:14:51.979Z,4064
2018-04-18T12:16:00.043Z,4048
2018-04-18T12:17:08.106Z,4044
2018-04-18T12:18:16.188Z,4056
2018-04-18T12:19:24.249Z,4060
2018-04-18T12:20:32.317Z,4084
2018-04-18T12:21:40.385Z,4084
2018-04-18T12:22:48.460Z,4060
2018-04-18T12:23:56.519Z,4068
2018-04-18T12:25:04.578Z,4032
2018-04-18T12:26:12.654Z,3972
2018-04-18T12:27:20.735Z,3924
2018-04-18T12:28:28.794Z,3912
2018-04-18T12:29:36.861Z,3884
2018-04-18T12:30:44.915Z,3840
2018-04-18T12:31:52.992Z,3816
2018-04-18T12:33:01.076Z,3800
2018-04-18T12:34:09.148Z,3812
2018-04-18T12:35:17.203Z,3836
2018-04-18T12:36:25.245Z,3852
2018-04-18T12:37:33.343Z,3896
2018-04-18T12:38:41.396Z,3920
2018-04-18T12:39:49.473Z,3908
2018-04-18T12:40:57.551Z,3876
2018-04-18T12:42:05.602Z,3876
2018-04-18T12:43:13.680Z,3892
2018-04-18T12:44:21.747Z,3972
2018-04-18T12:45:29.827Z,3992
2018-04-18T12:46:37.867Z,4000
2018-04-18T12:47:45.956Z,4004
2018-04-18T12:48:54.063Z,4012
2018-04-18T12:50:02.085Z,3956
2018-04-18T12:51:10.153Z,3940
2018-04-18T12:52:18.212Z,3916
2018-04-18T12:53:26.286Z,3892
2018-04-18T12:54:34.353Z,3892
2018-04-18T12:55:42.428Z,3896
2018-04-18T12:56:50.487Z,3896
2018-04-18T12:57:58.564Z,3820
2018-04-18T12:59:06.635Z,3700
2018-04-18T13:00:14.682Z,3664
2018-04-18T13:01:22.767Z,3588
2018-04-18T13:02:30.837Z,3564
2018-04-18T13:03:38.908Z,3540
2018-04-18T13:04:46.965Z,3596
2018-04-18T13:05:55.021Z,3624
2018-04-18T13:07:03.105Z,3604
2018-04-18T13:08:11.160Z,3612
2018-04-18T13:09:19.241Z,3620
2018-04-18T13:10:27.314Z,3572
2018-04-18T13:11:35.353Z,3560
2018-04-18T13:12:43.439Z,3572
2018-04-18T13:13:51.526Z,3600
2018-04-18T13:14:59.582Z,3576
2018-04-18T13:16:07.651Z,3580
2018-04-18T13:17:15.730Z,3552
2018-04-18T13:18:23.825Z,3532
2018-04-18T13:19:31.863Z,3496
2018-04-18T13:20:39.940Z,3448
2018-04-18T13:21:47.994Z,3476
2018-04-18T13:22:56.052Z,3464
2018-04-18T13:24:04.115Z,3468
2018-04-18T13:25:12.210Z,3464
2018-04-18T13:26:20.272Z,3456
2018-04-18T13:27:28.339Z,3424
2018-04-18T13:28:36.409Z,3464
2018-04-18T13:29:44.468Z,3480
2018-04-18T13:30:52.568Z,3484
2018-04-18T13:32:00.599Z,3460
2018-04-18T13:33:08.657Z,3456
2018-04-18T13:34:16.741Z,3456
2018-04-18T13:35:24.783Z,3444
2018-04-18T13:36:32.878Z,3468
2018-04-18T13:37:40.957Z,3452
2018-04-18T13:38:49.016Z,3436
2018-04-18T13:39:57.090Z,3468
2018-04-18T13:41:05.168Z,3496
2018-04-18T13:42:13.212Z,3488
2018-04-18T13:43:21.285Z,3480
2018-04-18T13:44:29.346Z,3512
2018-04-18T13:45:37.411Z,3508
2018-04-18T13:46:45.461Z,3504
2018-04-18T13:47:53.602Z,3512
2018-04-18T13:49:01.639Z,3496
2018-04-18T13:50:09.702Z,3472
2018-04-18T13:51:17.754Z,3428
2018-04-18T13:52:25.834Z,3432
2018-04-18T13:53:33.905Z,3452
2018-04-18T13:54:42.020Z,3472
2018-04-18T13:55:50.028Z,3504
2018-04-18T13:56:58.112Z,3504
2018-04-18T13:58:07.014Z,3516
2018-04-18T13:59:14.235Z,3540
2018-04-18T14:00:22.309Z,3548
2018-04-18T14:01:30.368Z,3540
2018-04-18T14:02:38.459Z,3528
2018-04-18T14:03:46.511Z,3532
2018-04-18T14:04:54.564Z,3536
2018-04-18T14:06:02.636Z,3524
2018-04-18T14:07:10.704Z,3512
2018-04-18T14:08:18.778Z,3524
2018-04-18T14:09:26.882Z,3532
2018-04-18T14:10:34.897Z,3536
2018-04-18T14:11:42.975Z,3520
2018-04-18T14:12:51.046Z,3504
2018-04-18T14:13:59.116Z,3516
2018-04-18T14:15:07.190Z,3528
2018-04-18T14:16:15.229Z,3536
2018-04-18T14:17:23.323Z,3540
2018-04-18T14:18:31.387Z,3544
2018-04-18T14:19:39.475Z,3568
2018-04-18T14:20:47.538Z,3552
2018-04-18T14:21:55.585Z,3564
2018-04-18T14:23:03.659Z,3600
2018-04-18T14:24:11.732Z,3576
2018-04-18T14:25:19.824Z,3564
2018-04-18T14:26:27.877Z,3536
2018-04-18T14:27:35.956Z,3496
2018-04-18T14:28:44.017Z,3484
2018-04-18T14:29:52.078Z,3480
2018-04-18T14:31:00.137Z,3468
2018-04-18T14:32:08.212Z,3444
2018-04-18T14:33:16.280Z,3448
2018-04-18T14:34:24.344Z,3456
2018-04-18T14:35:32.422Z,3460
2018-04-18T14:36:40.481Z,3456
2018-04-18T14:37:48.554Z,3452
2018-04-18T14:38:56.622Z,3428
2018-04-18T14:40:04.670Z,3388
2018-04-18T14:41:12.750Z,3356
2018-04-18T14:42:20.822Z,3344
2018-04-18T14:43:28.887Z,3348
2018-04-18T14:44:36.956Z,3328
2018-04-18T14:45:45.055Z,3324
2018-04-18T14:46:53.099Z,3320
2018-04-18T14:48:01.163Z,3316
2018-04-18T14:49:09.234Z,3316
2018-04-18T14:50:17.293Z,3328
2018-04-18T14:51:25.346Z,3344
2018-04-18T14:52:33.440Z,3344
2018-04-18T14:53:41.508Z,3356
2018-04-18T14:54:49.567Z,3360
2018-04-18T14:55:57.644Z,3356
2018-04-18T14:57:05.695Z,3344
2018-04-18T14:58:13.767Z,3324
2018-04-18T14:59:21.846Z,3296
2018-04-18T15:00:29.917Z,3276
2018-04-18T15:01:37.988Z,3288
2018-04-18T15:02:46.044Z,3260
2018-04-18T15:03:54.112Z,3244
2018-04-18T15:05:02.189Z,3228
2018-04-18T15:06:10.245Z,3208
2018-04-18T15:07:18.320Z,3212
2018-04-18T15:08:26.371Z,3216
2018-04-18T15:09:34.436Z,3216
2018-04-18T15:10:42.535Z,3200
2018-04-18T15:11:50.578Z,3200
2018-04-18T15:12:58.642Z,3212
2018-04-18T15:14:06.728Z,3204
2018-04-18T15:15:14.762Z,3192
2018-04-18T15:16:22.908Z,3188
2018-04-18T15:17:30.923Z,3168
2018-04-18T15:18:38.984Z,3164
2018-04-18T15:19:47.060Z,3164
2018-04-18T15:20:55.130Z,3168
2018-04-18T15:22:03.190Z,3148
2018-04-18T15:23:11.263Z,3148
2018-04-18T15:24:19.332Z,3128
2018-04-18T15:25:27.404Z,3128
2018-04-18T15:26:35.441Z,3132
2018-04-18T15:27:43.520Z,3136